createdAt,value
2018-11-25T00:02:08.109Z,79.60
2018-11-25T00:04:36.749Z,68.00
2018-11-25T00:07:05.677Z,73.87
2018-11-25T00:09:34.330Z,76.03
2018-11-25T00:12:02.911Z,73.93
2018-11-25T00:14:31.615Z,75.90
2018-11-25T00:17:00.273Z,74.07
2018-11-25T00:19:28.927Z,79.90
2018-11-25T00:21:57.568Z,65.77
2018-11-25T00:24:26.256Z,70.00
2018-11-25T00:26:54.947Z,67.03
2018-11-25T00:29:23.596Z,63.90
2018-11-25T00:31:52.302Z,62.17
2018-11-25T00:34:20.960Z,64.60
2018-11-25T00:36:49.655Z,59.87
2018-11-25T00:39:18.248Z,60.53
2018-11-25T00:41:46.949Z,61.13
2018-11-25T00:44:15.847Z,61.37
2018-11-25T00:46:44.657Z,57.23
2018-11-25T00:49:13.273Z,58.40
2018-11-25T00:51:41.889Z,55.03
2018-11-25T00:54:10.551Z,56.93
2018-11-25T00:56:39.160Z,57.47
2018-11-25T00:59:08.593Z,55.90
2018-11-25T01:01:36.493Z,53.63
2018-11-25T01:04:05.333Z,53.83
2018-11-25T01:06:33.998Z,52.80
2018-11-25T01:09:02.718Z,52.53
2018-11-25T01:11:31.506Z,54.57
2018-11-25T01:14:00.168Z,53.53
2018-11-25T01:16:28.864Z,53.47
2018-11-25T01:18:57.635Z,54.40
2018-11-25T01:21:26.313Z,54.93
2018-11-25T01:23:54.977Z,51.77
2018-11-25T01:26:23.581Z,54.13
2018-11-25T01:28:52.530Z,54.57
2018-11-25T01:31:21.134Z,55.23
2018-11-25T01:33:49.726Z,55.90
2018-11-25T01:36:18.324Z,54.40
2018-11-25T01:38:47.025Z,55.40
2018-11-25T01:41:15.684Z,56.27
2018-11-25T01:43:44.394Z,53.30
2018-11-25T01:46:13.185Z,56.53
2018-11-25T01:48:41.829Z,56.83
2018-11-25T01:51:10.564Z,55.70
2018-11-25T01:53:39.224Z,55.73
2018-11-25T01:56:07.953Z,54.63
2018-11-25T01:58:36.574Z,59.23
2018-11-25T02:01:05.761Z,60.83
2018-11-25T02:03:34.595Z,58.57
2018-11-25T02:06:03.241Z,57.97
2018-11-25T02:08:31.836Z,59.23
2018-11-25T02:11:00.589Z,58.10
2018-11-25T02:13:29.202Z,59.77
2018-11-25T02:15:57.815Z,58.13
2018-11-25T02:18:26.594Z,56.50
2018-11-25T02:20:57.039Z,56.47
2018-11-25T02:23:25.705Z,54.00
2018-11-25T02:25:54.501Z,52.03
2018-11-25T02:28:23.150Z,51.27
2018-11-25T02:30:51.784Z,50.13
2018-11-25T02:33:21.432Z,51.53
2018-11-25T02:35:50.034Z,50.43
2018-11-25T02:45:19.158Z,51.27
2018-11-25T02:47:47.908Z,53.20
2018-11-25T02:50:24.912Z,51.90
2018-11-25T02:52:54.381Z,54.10
2018-11-25T02:55:25.138Z,51.47
2018-11-25T02:57:53.776Z,56.40
2018-11-25T03:00:22.668Z,56.03
2018-11-25T03:02:51.320Z,55.80
2018-11-25T03:05:20.027Z,55.40
2018-11-25T03:07:48.722Z,54.20
2018-11-25T03:10:17.400Z,59.23
2018-11-25T03:12:46.142Z,53.63
2018-11-25T03:15:16.721Z,54.57
2018-11-25T03:17:45.447Z,54.83
2018-11-25T03:20:15.125Z,54.07
2018-11-25T03:22:43.796Z,51.03
2018-11-25T03:25:15.936Z,53.57
2018-11-25T03:27:44.547Z,49.57
2018-11-25T03:30:14.483Z,49.67
2018-11-25T03:32:43.823Z,51.37
2018-11-25T03:35:13.265Z,52.33
2018-11-25T03:37:42.076Z,50.30
2018-11-25T03:40:12.781Z,51.73
2018-11-25T03:42:41.509Z,49.53
2018-11-25T03:45:19.868Z,48.83
2018-11-25T03:47:48.589Z,47.70
2018-11-25T03:50:17.405Z,51.30
2018-11-25T03:52:46.024Z,51.40
2018-11-25T03:55:15.609Z,49.57
2018-11-25T03:57:44.543Z,51.60
2018-11-25T04:00:21.444Z,54.43
2018-11-25T04:02:51.340Z,54.20
2018-11-25T04:05:20.025Z,54.73
2018-11-25T04:07:48.750Z,54.23
2018-11-25T04:10:18.972Z,54.63
2018-11-25T04:12:47.683Z,54.27
2018-11-25T04:15:17.525Z,55.40
2018-11-25T04:17:46.683Z,55.87
2018-11-25T04:20:18.990Z,55.27
2018-11-25T04:22:47.920Z,61.43
2018-11-25T04:25:16.585Z,61.23
2018-11-25T04:27:45.358Z,63.03
2018-11-25T04:30:16.049Z,58.93
2018-11-25T04:32:45.385Z,56.90
2018-11-25T04:35:14.232Z,61.97
2018-11-25T04:37:42.837Z,64.80
2018-11-25T04:40:13.788Z,63.53
2018-11-25T04:42:42.497Z,68.40
2018-11-25T04:45:12.399Z,66.10
2018-11-25T04:47:41.100Z,65.60
2018-11-25T04:50:16.913Z,62.67
2018-11-25T04:52:45.747Z,62.07
2018-11-25T04:55:14.533Z,61.53
2018-11-25T04:57:46.694Z,60.73
2018-11-25T05:00:15.420Z,60.27
2018-11-25T05:02:44.036Z,56.63
2018-11-25T05:05:14.017Z,60.87
2018-11-25T05:07:42.647Z,63.27
2018-11-25T05:10:15.320Z,62.33
2018-11-25T05:12:44.049Z,65.57
2018-11-25T05:15:18.944Z,63.07
2018-11-25T05:17:47.656Z,61.07
2018-11-25T05:20:16.942Z,58.83
2018-11-25T05:22:45.607Z,61.03
2018-11-25T05:25:15.298Z,56.97
2018-11-25T05:27:44.052Z,66.13
2018-11-25T05:30:16.973Z,65.03
2018-11-25T05:32:45.643Z,62.93
2018-11-25T05:35:17.212Z,60.87
2018-11-25T05:37:45.871Z,58.50
2018-11-25T05:40:15.516Z,58.00
2018-11-25T05:42:44.544Z,56.93
2018-11-25T05:45:15.139Z,55.03
2018-11-25T05:47:43.824Z,53.47
2018-11-25T05:50:14.699Z,54.33
2018-11-25T05:52:43.326Z,54.27
2018-11-25T05:55:12.874Z,54.73
2018-11-25T05:57:41.861Z,53.67
2018-11-25T06:00:14.613Z,55.13
2018-11-25T06:02:43.313Z,53.90
2018-11-25T06:05:11.995Z,53.97
2018-11-25T06:07:41.072Z,54.43
2018-11-25T06:10:11.312Z,53.73
2018-11-25T06:12:40.395Z,52.90
2018-11-25T06:15:10.662Z,52.13
2018-11-25T06:17:39.303Z,51.93
2018-11-25T06:20:10.879Z,50.07
2018-11-25T06:22:39.598Z,51.03
2018-11-25T06:25:10.723Z,50.43
2018-11-25T06:27:39.370Z,50.57
2018-11-25T06:30:10.785Z,50.73
2018-11-25T06:32:39.518Z,49.40
2018-11-25T06:35:09.692Z,52.57
2018-11-25T06:37:38.294Z,55.50
2018-11-25T06:40:12.916Z,48.47
2018-11-25T06:42:41.603Z,55.20
2018-11-25T06:45:14.653Z,54.43
2018-11-25T06:47:44.299Z,59.70
2018-11-25T06:50:13.371Z,58.57
2018-11-25T06:52:42.220Z,55.63
2018-11-25T06:55:12.167Z,49.43
2018-11-25T06:57:40.912Z,49.33
2018-11-25T07:00:14.107Z,48.33
2018-11-25T07:02:42.876Z,47.50
2018-11-25T07:05:11.624Z,51.50
2018-11-25T07:07:40.572Z,48.57
2018-11-25T07:10:13.704Z,48.57
2018-11-25T07:12:42.372Z,47.57
2018-11-25T07:15:15.028Z,48.80
2018-11-25T07:17:43.790Z,47.47
2018-11-25T07:20:15.612Z,47.00
2018-11-25T07:22:44.307Z,48.27
2018-11-25T07:25:28.688Z,49.80
2018-11-25T07:27:57.341Z,48.80
2018-11-25T07:30:28.748Z,45.77
2018-11-25T07:32:57.514Z,46.47
2018-11-25T07:35:27.993Z,44.33
2018-11-25T07:37:56.622Z,45.47
2018-11-25T07:41:49.886Z,44.73
2018-11-25T07:44:18.565Z,43.57
2018-11-25T07:46:47.228Z,45.13
2018-11-25T07:49:15.922Z,46.17
2018-11-25T07:51:44.730Z,46.33
2018-11-25T07:54:13.411Z,45.60
2018-11-25T07:56:42.213Z,46.70
2018-11-25T07:59:10.839Z,44.10
2018-11-25T08:01:39.504Z,48.33
2018-11-25T08:04:08.155Z,45.57
2018-11-25T08:06:36.922Z,44.27
2018-11-25T08:09:07.896Z,43.57
2018-11-25T08:11:36.612Z,42.47
2018-11-25T08:14:05.352Z,46.30
2018-11-25T08:16:34.067Z,48.97
2018-11-25T08:19:02.846Z,51.77
2018-11-25T08:21:31.513Z,47.73
2018-11-25T08:24:00.157Z,47.23
2018-11-25T08:26:28.976Z,46.53
2018-11-25T08:28:57.647Z,46.67
2018-11-25T08:31:26.316Z,47.23
2018-11-25T08:33:55.088Z,46.93
2018-11-25T08:36:23.693Z,46.23
2018-11-25T08:38:52.271Z,45.00
2018-11-25T08:41:21.081Z,49.10
2018-11-25T08:43:49.743Z,50.20
2018-11-25T08:46:18.483Z,53.10
2018-11-25T08:48:47.371Z,49.03
2018-11-25T08:51:16.037Z,50.47
2018-11-25T08:53:44.739Z,48.40
2018-11-25T08:56:13.388Z,53.33
2018-11-25T08:58:42.102Z,48.93
2018-11-25T09:01:10.877Z,50.20
2018-11-25T09:03:39.711Z,47.60
2018-11-25T09:06:08.397Z,49.43
2018-11-25T09:08:37.144Z,50.33
2018-11-25T09:11:06.068Z,48.23
2018-11-25T09:13:34.817Z,47.13
2018-11-25T09:16:03.516Z,47.00
2018-11-25T09:18:32.152Z,48.97
2018-11-25T09:21:00.882Z,47.47
2018-11-25T09:23:29.515Z,48.60
2018-11-25T09:25:58.222Z,45.23
2018-11-25T09:28:27.008Z,45.27
2018-11-25T09:30:55.588Z,47.33
2018-11-25T09:33:24.401Z,58.37
2018-11-25T09:35:53.040Z,50.63
2018-11-25T09:38:21.654Z,47.77
2018-11-25T09:40:50.452Z,49.83
2018-11-25T09:43:19.118Z,48.73
2018-11-25T09:45:47.812Z,50.03
2018-11-25T09:48:16.497Z,50.67
2018-11-25T09:50:45.156Z,47.20
2018-11-25T09:53:13.784Z,51.63
2018-11-25T09:55:42.473Z,50.23
2018-11-25T09:58:11.107Z,45.47
2018-11-25T10:00:39.833Z,49.87
2018-11-25T10:03:08.734Z,46.33
2018-11-25T10:05:37.382Z,49.70
2018-11-25T10:08:06.192Z,48.77
2018-11-25T10:10:34.887Z,48.43
2018-11-25T10:13:03.581Z,48.40
2018-11-25T10:15:32.229Z,49.43
2018-11-25T10:18:00.980Z,49.87
2018-11-25T10:27:30.473Z,51.13
2018-11-25T10:29:59.221Z,53.47
2018-11-25T10:32:27.853Z,54.67
2018-11-25T10:34:56.541Z,55.53
2018-11-25T10:37:25.183Z,55.07
2018-11-25T10:39:53.909Z,54.90
2018-11-25T10:42:22.548Z,55.43
2018-11-25T10:44:51.162Z,54.53
2018-11-25T10:47:19.848Z,52.30
2018-11-25T10:49:48.533Z,52.37
2018-11-25T10:52:17.224Z,50.17
2018-11-25T10:54:46.034Z,52.97
2018-11-25T10:57:14.714Z,52.00
2018-11-25T10:59:43.357Z,55.27
2018-11-25T11:02:17.459Z,43.53
2018-11-25T11:04:51.336Z,56.23
2018-11-25T11:07:22.058Z,87.10
2018-11-25T11:09:51.218Z,62.80
2018-11-25T11:12:20.055Z,62.10
2018-11-25T11:14:48.659Z,63.43
2018-11-25T11:17:17.271Z,68.00
2018-11-25T11:19:45.974Z,59.73
2018-11-25T11:22:14.662Z,58.57
2018-11-25T11:24:43.301Z,58.87
2018-11-25T11:27:11.917Z,62.07
2018-11-25T11:29:40.575Z,61.37
2018-11-25T11:32:09.152Z,60.97
2018-11-25T11:34:37.882Z,57.63
2018-11-25T11:37:06.797Z,56.77
2018-11-25T11:39:35.670Z,55.20
2018-11-25T11:42:04.355Z,54.33
2018-11-25T11:44:33.007Z,53.93
2018-11-25T11:47:01.762Z,53.40
2018-11-25T11:49:30.384Z,52.67
2018-11-25T11:51:59.180Z,56.07
2018-11-25T11:54:27.861Z,54.77
2018-11-25T11:56:56.534Z,53.03
2018-11-25T11:59:25.238Z,54.00
2018-11-25T12:01:54.117Z,56.83
2018-11-25T12:04:22.788Z,57.63
2018-11-25T12:06:51.508Z,57.17
2018-11-25T12:09:20.153Z,57.63
2018-11-25T12:11:48.756Z,56.60
2018-11-25T12:14:17.571Z,57.27
2018-11-25T12:16:46.212Z,58.40
2018-11-25T12:19:15.035Z,57.63
2018-11-25T12:21:43.701Z,57.17
2018-11-25T12:24:12.396Z,57.97
2018-11-25T12:26:41.118Z,59.80
2018-11-25T12:29:09.978Z,60.03
2018-11-25T12:31:38.624Z,60.17
2018-11-25T12:34:07.332Z,57.73
2018-11-25T12:36:36.013Z,54.33
2018-11-25T12:39:07.531Z,58.30
2018-11-25T12:41:36.150Z,56.00
2018-11-25T12:44:04.910Z,57.13
2018-11-25T12:46:35.504Z,57.33
2018-11-25T12:49:05.852Z,59.87
2018-11-25T12:51:35.730Z,55.80
2018-11-25T12:54:05.704Z,57.10
2018-11-25T12:56:35.445Z,56.97
2018-11-25T12:59:05.424Z,54.43
2018-11-25T13:01:35.201Z,56.53
2018-11-25T13:04:04.893Z,52.00
2018-11-25T13:06:34.688Z,52.37
2018-11-25T13:09:04.844Z,54.50
2018-11-25T13:11:34.656Z,57.30
2018-11-25T13:14:05.382Z,55.60
2018-11-25T13:16:35.948Z,56.20
2018-11-25T13:19:05.476Z,53.87
2018-11-25T13:21:35.337Z,53.40
2018-11-25T13:24:05.034Z,55.40
2018-11-25T13:26:34.915Z,51.27
2018-11-25T13:29:04.612Z,51.73
2018-11-25T13:31:34.536Z,49.57
2018-11-25T13:34:04.288Z,52.13
2018-11-25T13:36:34.128Z,53.80
2018-11-25T13:39:04.392Z,52.53
2018-11-25T13:41:34.560Z,51.27
2018-11-25T13:44:04.401Z,51.63
2018-11-25T13:46:34.242Z,50.97
2018-11-25T13:49:04.113Z,51.40
2018-11-25T13:51:34.006Z,51.70
2018-11-25T13:54:04.658Z,51.50
2018-11-25T13:56:33.683Z,54.37
2018-11-25T13:59:03.632Z,52.40
2018-11-25T14:01:33.827Z,52.37
2018-11-25T14:04:03.668Z,52.30
2018-11-25T14:06:33.463Z,51.00
2018-11-25T14:09:04.381Z,56.70
2018-11-25T14:11:34.188Z,56.03
2018-11-25T14:14:04.267Z,58.53
2018-11-25T14:16:35.043Z,53.93
2018-11-25T14:19:03.885Z,50.70
2018-11-25T14:21:33.855Z,49.07
2018-11-25T14:24:03.615Z,50.10
2018-11-25T14:26:40.570Z,50.20
2018-11-25T14:29:10.430Z,49.37
2018-11-25T14:31:40.266Z,50.70
2018-11-25T14:34:10.128Z,52.07
2018-11-25T14:36:39.899Z,54.50
2018-11-25T14:39:11.938Z,53.03
2018-11-25T14:41:41.901Z,52.60
2018-11-25T14:44:12.154Z,52.27
2018-11-25T14:46:42.153Z,50.83
2018-11-25T14:49:11.815Z,52.80
2018-11-25T14:51:41.802Z,56.90
2018-11-25T14:54:11.696Z,65.63
2018-11-25T14:56:40.976Z,64.23
2018-11-25T14:59:09.641Z,54.87
2018-11-25T15:01:38.278Z,55.90
2018-11-25T15:04:07.151Z,58.77
2018-11-25T15:06:35.842Z,55.63
2018-11-25T15:09:06.784Z,54.67
2018-11-25T15:11:35.457Z,53.90
2018-11-25T15:14:04.100Z,56.13
2018-11-25T15:16:32.748Z,60.73
2018-11-25T15:19:01.423Z,69.63
2018-11-25T15:21:30.447Z,73.00
2018-11-25T15:24:00.124Z,73.93
2018-11-25T15:26:29.820Z,69.13
2018-11-25T15:28:59.293Z,66.47
2018-11-25T15:31:27.924Z,68.17
2018-11-25T15:33:56.768Z,71.87
2018-11-25T15:36:25.433Z,76.80
2018-11-25T15:38:54.104Z,72.87
2018-11-25T15:41:22.879Z,70.30
2018-11-25T15:43:51.548Z,69.60
2018-11-25T15:46:20.421Z,66.43
2018-11-25T15:48:49.024Z,70.60
2018-11-25T15:51:17.741Z,64.60
2018-11-25T15:53:46.400Z,63.33
2018-11-25T15:56:15.205Z,67.70
2018-11-25T15:58:43.994Z,64.07
2018-11-25T16:01:12.756Z,59.43
2018-11-25T16:03:41.479Z,62.00
2018-11-25T16:06:20.500Z,62.67
2018-11-25T16:08:49.178Z,57.97
2018-11-25T16:11:18.070Z,57.47
2018-11-25T16:13:46.750Z,58.87
2018-11-25T16:16:15.745Z,61.00
2018-11-25T16:18:44.424Z,62.13
2018-11-25T16:21:13.095Z,59.17
2018-11-25T16:23:41.804Z,61.17
2018-11-25T16:26:28.530Z,60.63
2018-11-25T16:28:59.591Z,61.33
2018-11-25T16:31:28.350Z,62.23
2018-11-25T16:33:57.001Z,61.57
2018-11-25T16:36:25.695Z,64.90
2018-11-25T16:38:54.373Z,64.83
2018-11-25T16:41:23.281Z,61.13
2018-11-25T16:43:52.849Z,60.47
2018-11-25T16:46:21.452Z,61.67
2018-11-25T16:48:50.275Z,67.70
2018-11-25T16:51:18.888Z,64.97
2018-11-25T16:53:47.613Z,71.27
2018-11-25T16:56:16.317Z,73.00
2018-11-25T16:58:44.966Z,75.23
2018-11-25T17:01:13.694Z,74.67
2018-11-25T17:03:42.367Z,64.07
2018-11-25T17:06:11.801Z,61.13
2018-11-25T17:08:41.887Z,58.80
2018-11-25T17:11:10.593Z,60.23
2018-11-25T17:13:39.269Z,60.37
2018-11-25T17:16:08.820Z,61.90
2018-11-25T17:18:38.363Z,60.57
2018-11-25T17:21:07.036Z,59.53
2018-11-25T17:23:36.194Z,58.67
2018-11-25T17:26:05.099Z,61.07
2018-11-25T17:28:34.069Z,58.00
2018-11-25T17:31:02.750Z,55.00
2018-11-25T17:33:31.640Z,61.63
2018-11-25T17:36:00.404Z,57.37
2018-11-25T17:38:29.117Z,56.17
2018-11-25T17:40:57.950Z,53.90
2018-11-25T17:43:26.720Z,54.17
2018-11-25T17:45:55.560Z,53.27
2018-11-25T17:48:24.298Z,55.60
2018-11-25T17:50:53.320Z,53.13
2018-11-25T17:53:22.538Z,55.43
2018-11-25T17:55:52.039Z,57.50
2018-11-25T17:58:21.165Z,58.47
2018-11-25T18:00:57.122Z,54.53
2018-11-25T18:03:29.798Z,54.80
2018-11-25T18:05:58.866Z,56.93
2018-11-25T18:08:27.739Z,55.87
2018-11-25T18:10:56.664Z,56.27
2018-11-25T18:13:27.173Z,56.70
2018-11-25T18:15:57.434Z,55.03
2018-11-25T18:18:33.089Z,60.03
2018-11-25T18:21:03.552Z,68.90
2018-11-25T18:23:32.319Z,64.93
2018-11-25T18:26:01.457Z,63.80
2018-11-25T18:28:30.290Z,58.77
2018-11-25T18:30:59.162Z,55.50
2018-11-25T18:34:52.216Z,53.30
2018-11-25T18:37:20.907Z,56.30
2018-11-25T18:39:49.575Z,52.20
2018-11-25T18:42:18.241Z,49.73
2018-11-25T18:44:47.026Z,50.43
2018-11-25T18:47:15.705Z,55.13
2018-11-25T18:49:44.690Z,53.00
2018-11-25T18:52:13.473Z,51.93
2018-11-25T18:54:50.153Z,48.50
2018-11-25T18:57:19.070Z,50.93
2018-11-25T18:59:47.714Z,49.30
2018-11-25T19:15:17.244Z,49.23
2018-11-25T19:17:46.181Z,50.67
2018-11-25T19:20:17.575Z,54.97
2018-11-25T19:22:47.358Z,54.10
2018-11-25T19:25:17.383Z,59.23
2018-11-25T19:27:47.390Z,57.13
2018-11-25T19:30:17.476Z,56.00
2018-11-25T19:32:48.388Z,57.03
2018-11-25T19:35:19.206Z,55.03
2018-11-25T19:37:49.051Z,52.63
2018-11-25T19:40:19.992Z,54.63
2018-11-25T19:42:48.722Z,61.10
2018-11-25T19:45:20.096Z,64.90
2018-11-25T19:47:48.845Z,58.20
2018-11-25T19:50:23.367Z,51.20
2018-11-25T19:52:52.225Z,51.30
2018-11-25T19:55:21.726Z,52.20
2018-11-25T19:57:49.840Z,51.73
2018-11-25T20:00:23.781Z,55.00
2018-11-25T20:02:52.826Z,57.00
2018-11-25T20:05:21.545Z,59.30
2018-11-25T20:07:50.235Z,55.03
2018-11-25T20:10:20.225Z,59.33
2018-11-25T20:12:51.119Z,53.07
2018-11-25T20:15:20.500Z,55.97
2018-11-25T20:17:54.428Z,57.13
2018-11-25T20:20:20.594Z,53.37
2018-11-25T20:22:49.903Z,53.20
2018-11-25T20:25:19.103Z,52.97
2018-11-25T20:27:48.937Z,53.10
2018-11-25T20:30:34.237Z,53.67
2018-11-25T20:33:08.312Z,51.80
2018-11-25T20:35:37.042Z,52.23
2018-11-25T20:38:11.573Z,49.80
2018-11-25T20:40:40.430Z,48.53
2018-11-25T20:43:09.280Z,50.90
2018-11-25T20:45:43.419Z,48.60
2018-11-25T20:48:12.071Z,50.50
2018-11-25T20:50:40.772Z,48.03
2018-11-25T20:53:14.701Z,48.07
2018-11-25T20:55:43.405Z,47.93
2018-11-25T20:59:36.942Z,48.00
2018-11-25T21:02:06.129Z,44.10
2018-11-25T21:04:34.841Z,45.67
2018-11-25T21:07:03.489Z,45.13
2018-11-25T21:09:32.289Z,43.77
2018-11-25T21:12:00.883Z,43.03
2018-11-25T21:14:29.517Z,43.63
2018-11-25T21:16:58.139Z,42.97
2018-11-25T21:19:26.815Z,41.37
2018-11-25T21:21:55.536Z,44.53
2018-11-25T21:24:24.151Z,43.47
2018-11-25T21:26:52.949Z,43.53
2018-11-25T21:29:21.727Z,42.07
2018-11-25T21:31:50.324Z,39.33
2018-11-25T21:34:19.030Z,39.47
2018-11-25T21:36:47.664Z,39.50
2018-11-25T21:39:16.728Z,38.93
2018-11-25T21:41:45.600Z,38.97
2018-11-25T21:44:14.386Z,38.37
2018-11-25T21:46:43.029Z,39.20
2018-11-25T21:49:11.811Z,39.00
2018-11-25T21:51:40.493Z,38.07
2018-11-25T21:54:09.243Z,38.90
2018-11-25T21:56:37.901Z,36.57
2018-11-25T21:59:06.563Z,37.90
2018-11-25T22:01:35.160Z,45.30
2018-11-25T22:04:03.867Z,43.37
2018-11-25T22:06:32.522Z,39.77
2018-11-25T22:09:01.638Z,40.73
2018-11-25T22:11:30.341Z,41.50
2018-11-25T22:13:58.989Z,42.73
2018-11-25T22:16:27.660Z,39.47
2018-11-25T22:18:56.319Z,40.97
2018-11-25T22:21:24.996Z,38.87
2018-11-25T22:23:53.773Z,39.00
2018-11-25T22:26:22.943Z,39.13
2018-11-25T22:28:51.736Z,37.07
2018-11-25T22:31:20.572Z,38.90
2018-11-25T22:33:49.169Z,36.63
2018-11-25T22:36:17.792Z,37.33
2018-11-25T22:38:46.437Z,36.63
2018-11-25T22:41:15.040Z,35.53
2018-11-25T22:45:08.155Z,35.23
2018-11-25T22:47:37.495Z,32.53
2018-11-25T22:50:08.924Z,38.27
2018-11-25T22:52:37.588Z,33.90
2018-11-25T22:55:09.013Z,35.70
2018-11-25T22:57:37.661Z,38.20
2018-11-25T23:00:12.533Z,36.47
2018-11-25T23:02:41.164Z,35.87
2018-11-25T23:05:20.937Z,37.07
2018-11-25T23:07:49.616Z,34.80
2018-11-25T23:10:18.425Z,34.50
2018-11-25T23:12:47.137Z,35.40
2018-11-25T23:15:15.930Z,39.43
2018-11-25T23:17:44.585Z,35.23
2018-11-25T23:20:13.273Z,33.47
2018-11-25T23:22:41.941Z,30.20
2018-11-25T23:25:10.655Z,30.30
2018-11-25T23:27:39.922Z,28.97
2018-11-25T23:30:09.920Z,31.10
2018-11-25T23:32:38.521Z,29.63
2018-11-25T23:35:12.075Z,29.97
2018-11-25T23:37:40.693Z,30.73
2018-11-25T23:40:10.286Z,30.17
2018-11-25T23:42:38.976Z,31.60
2018-11-25T23:45:10.493Z,31.13
2018-11-25T23:47:39.200Z,32.93
2018-11-25T23:50:10.268Z,34.57
2018-11-25T23:52:39.247Z,35.90
2018-11-25T23:55:09.428Z,34.50
2018-11-25T23:57:38.067Z,33.27
